createdAt,value
2023-04-24T00:00:59.956Z,97557.97
2023-04-24T00:03:04.151Z,97547.28
2023-04-24T00:05:09.263Z,97551.97
2023-04-24T00:07:11.262Z,97550.69
2023-04-24T00:09:12.763Z,97552.63
2023-04-24T00:11:14.610Z,97551.00
2023-04-24T00:13:16.105Z,97543.88
2023-04-24T00:15:17.713Z,97543.88
2023-04-24T00:17:22.516Z,97533.47
2023-04-24T00:19:24.032Z,97544.00
2023-04-24T00:21:26.537Z,97542.72
2023-04-24T00:23:28.090Z,97544.66
2023-04-24T00:25:29.567Z,97545.78
2023-04-24T00:27:31.044Z,97554.84
2023-04-24T00:29:32.706Z,97541.06
2023-04-24T00:31:35.947Z,97539.78
2023-04-24T00:33:37.546Z,97557.13
2023-04-24T00:35:39.030Z,97557.44
2023-04-24T00:37:40.600Z,97564.88
2023-04-24T00:39:42.202Z,97565.22
2023-04-24T00:41:44.217Z,97560.81
2023-04-24T00:43:45.783Z,97555.66
2023-04-24T00:45:47.534Z,97556.44
2023-04-24T00:47:49.411Z,97561.47
2023-04-24T00:49:50.919Z,97550.78
2023-04-24T00:51:52.395Z,97540.88
2023-04-24T00:53:54.052Z,97547.53
2023-04-24T00:55:55.578Z,97546.72
2023-04-24T00:57:57.210Z,97545.41
2023-04-24T00:59:58.760Z,97544.59
2023-04-24T01:02:00.780Z,97545.22
2023-04-24T01:04:03.495Z,97536.13
2023-04-24T01:06:06.138Z,97538.41
2023-04-24T01:08:07.924Z,97538.72
2023-04-24T01:10:09.950Z,97535.50
2023-04-24T01:12:11.516Z,97544.38
2023-04-24T01:14:12.994Z,97552.94
2023-04-24T01:16:16.340Z,97546.31
2023-04-24T01:18:17.877Z,97552.16
2023-04-24T01:20:20.133Z,97556.34
2023-04-24T01:22:21.792Z,97550.03
2023-04-24T01:24:23.322Z,97545.63
2023-04-24T01:26:26.478Z,97544.03
2023-04-24T01:28:28.149Z,97542.06
2023-04-24T01:30:30.393Z,97544.03
2023-04-24T01:32:33.346Z,97549.84
2023-04-24T01:34:35.487Z,97551.78
2023-04-24T01:36:37.937Z,97540.59
2023-04-24T01:38:39.353Z,97548.53
2023-04-24T01:40:41.106Z,97543.34
2023-04-24T01:42:43.577Z,97542.53
2023-04-24T01:44:45.980Z,97545.63
2023-04-24T01:46:47.687Z,97542.03
2023-04-24T01:48:49.354Z,97539.59
2023-04-24T01:50:50.834Z,97539.59
2023-04-24T01:52:52.612Z,97542.66
2023-04-24T01:54:54.268Z,97538.28
2023-04-24T01:56:55.890Z,97539.44
2023-04-24T01:58:58.233Z,97541.69
2023-04-24T02:01:00.575Z,97538.94
2023-04-24T02:03:02.994Z,97534.53
2023-04-24T02:05:07.229Z,97525.78
2023-04-24T02:07:11.341Z,97529.34
2023-04-24T02:09:12.881Z,97523.34
2023-04-24T02:11:14.336Z,97519.47
2023-04-24T02:13:15.828Z,97520.91
2023-04-24T02:15:18.103Z,97519.00
2023-04-24T02:17:20.476Z,97514.59
2023-04-24T02:19:22.000Z,97516.53
2023-04-24T02:21:27.776Z,97511.34
2023-04-24T02:23:29.336Z,97513.63
2023-04-24T02:25:30.923Z,97513.09
2023-04-24T02:27:32.371Z,97505.66
2023-04-24T02:29:33.848Z,97514.25
2023-04-24T02:31:35.473Z,97504.06
2023-04-24T02:33:37.091Z,97508.41
2023-04-24T02:35:38.763Z,97496.91
2023-04-24T02:37:40.489Z,97504.84
2023-04-24T02:39:42.064Z,97501.94
2023-04-24T02:41:44.583Z,97501.44
2023-04-24T02:43:46.061Z,97498.97
2023-04-24T02:45:47.553Z,97499.31
2023-04-24T02:47:49.103Z,97498.81
2023-04-24T02:49:50.712Z,97487.81
2023-04-24T02:51:52.408Z,97490.88
2023-04-24T02:53:54.075Z,97499.94
2023-04-24T02:55:55.595Z,97496.66
2023-04-24T02:57:57.195Z,97492.28
2023-04-24T02:59:58.633Z,97489.84
2023-04-24T03:02:00.512Z,97489.84
2023-04-24T03:04:02.570Z,97496.47
2023-04-24T03:06:06.800Z,97491.59
2023-04-24T03:08:08.333Z,97489.66
2023-04-24T03:10:10.136Z,97488.06
2023-04-24T03:12:11.653Z,97485.94
2023-04-24T03:14:14.612Z,97482.34
2023-04-24T03:16:16.102Z,97487.03
2023-04-24T03:18:17.608Z,97482.16
2023-04-24T03:20:19.387Z,97482.16
2023-04-24T03:22:20.879Z,97484.41
2023-04-24T03:24:23.495Z,97479.53
2023-04-24T03:26:25.010Z,97485.03
2023-04-24T03:28:42.178Z,97482.63
2023-04-24T03:30:43.736Z,97485.69
2023-04-24T03:32:46.294Z,97497.31
2023-04-24T03:34:51.508Z,97490.19
2023-04-24T03:36:53.716Z,97491.31
2023-04-24T03:38:55.457Z,97494.38
2023-04-24T03:41:03.536Z,97491.94
2023-04-24T03:43:18.668Z,97490.63
2023-04-24T03:45:20.934Z,97489.31
2023-04-24T03:47:25.387Z,97481.06
2023-04-24T03:49:29.682Z,97491.25
2023-04-24T03:51:32.372Z,97498.19
2023-04-24T03:53:44.056Z,97495.78
2023-04-24T03:55:47.894Z,97496.06
2023-04-24T03:57:49.938Z,97493.63
2023-04-24T03:59:56.976Z,97498.94
2023-04-24T04:02:00.512Z,97493.44
2023-04-24T04:04:02.213Z,97501.69
2023-04-24T04:06:05.033Z,97488.25
2023-04-24T04:08:07.266Z,97497.63
2023-04-24T04:10:09.101Z,97492.75
2023-04-24T04:12:12.452Z,97491.94
2023-04-24T04:14:14.303Z,97487.25
2023-04-24T04:16:19.663Z,97494.19
2023-04-24T04:18:23.417Z,97489.81
2023-04-24T04:20:25.022Z,97498.06
2023-04-24T04:22:26.840Z,97497.56
2023-04-24T04:24:29.476Z,97497.88
2023-04-24T04:26:33.961Z,97497.56
2023-04-24T04:28:40.766Z,97498.19
2023-04-24T04:30:42.328Z,97506.72
2023-04-24T04:32:43.898Z,97510.28
2023-04-24T04:34:46.507Z,97504.63
2023-04-24T04:36:48.207Z,97508.97
2023-04-24T04:39:00.887Z,97508.47
2023-04-24T04:41:19.760Z,97501.34
2023-04-24T04:43:21.411Z,97508.28
2023-04-24T04:45:27.866Z,97501.19
2023-04-24T04:47:49.675Z,97504.22
2023-04-24T04:49:54.310Z,97506.97
2023-04-24T04:52:02.410Z,97497.94
2023-04-24T04:54:04.236Z,97501.78
2023-04-24T04:56:06.420Z,97499.88
2023-04-24T04:58:12.644Z,97506.19
2023-04-24T05:00:14.833Z,97510.53
2023-04-24T05:02:22.920Z,97511.66
2023-04-24T05:04:24.782Z,97516.03
2023-04-24T05:06:27.088Z,97513.28
2023-04-24T05:08:29.846Z,97513.28
2023-04-24T05:10:31.622Z,97519.28
2023-04-24T05:12:33.273Z,97516.53
2023-04-24T05:14:36.567Z,97522.84
2023-04-24T05:16:38.181Z,97530.25
2023-04-24T05:18:41.080Z,97524.47
2023-04-24T05:20:45.043Z,97531.56
2023-04-24T05:22:46.756Z,97530.47
2023-04-24T05:24:49.878Z,97548.59
2023-04-24T05:27:10.355Z,97537.28
2023-04-24T05:29:15.569Z,97528.72
2023-04-24T05:31:18.879Z,97539.41
2023-04-24T05:33:20.476Z,97539.91
2023-04-24T05:35:21.979Z,97548.16
2023-04-24T05:37:23.404Z,97554.47
2023-04-24T05:39:26.078Z,97554.97
2023-04-24T05:41:28.661Z,97551.41
2023-04-24T05:43:30.166Z,97556.91
2023-04-24T05:45:32.678Z,97559.34
2023-04-24T05:47:34.244Z,97560.97
2023-04-24T05:49:36.009Z,97552.72
2023-04-24T05:51:37.742Z,97549.16
2023-04-24T05:53:39.586Z,97561.97
2023-04-24T05:55:41.462Z,97553.75
2023-04-24T05:57:43.190Z,97555.06
2023-04-24T05:59:44.920Z,97555.84
2023-04-24T06:01:46.710Z,97556.66
2023-04-24T06:03:54.936Z,97561.06
2023-04-24T06:05:56.513Z,97558.31
2023-04-24T06:07:58.849Z,97573.38
2023-04-24T06:10:05.098Z,97565.13
2023-04-24T06:12:13.518Z,97578.84
2023-04-24T06:14:35.501Z,97578.38
2023-04-24T06:16:53.642Z,97584.66
2023-04-24T06:19:07.961Z,97586.59
2023-04-24T06:21:10.727Z,97606.66
2023-04-24T06:23:12.208Z,97601.47
2023-04-24T06:25:13.745Z,97595.66
2023-04-24T06:27:15.913Z,97588.22
2023-04-24T06:29:17.509Z,97594.03
2023-04-24T06:31:18.950Z,97595.16
2023-04-24T06:33:22.326Z,97594.66
2023-04-24T06:35:25.390Z,97601.56
2023-04-24T06:37:26.982Z,97600.47
2023-04-24T06:39:28.436Z,97605.66
2023-04-24T06:41:30.292Z,97611.16
2023-04-24T06:43:32.615Z,97609.50
2023-04-24T06:45:34.233Z,97607.91
2023-04-24T06:47:35.872Z,97604.31
2023-04-24T06:49:40.888Z,97614.00
2023-04-24T06:51:42.481Z,97612.06
2023-04-24T06:53:44.207Z,97605.75
2023-04-24T06:55:47.060Z,97602.69
2023-04-24T06:57:48.583Z,97611.75
2023-04-24T06:59:50.009Z,97610.66
2023-04-24T07:01:55.628Z,97602.41
2023-04-24T07:03:57.595Z,97613.06
2023-04-24T07:05:59.331Z,97625.22
2023-04-24T07:08:01.328Z,97624.88
2023-04-24T07:10:04.945Z,97622.13
2023-04-24T07:12:07.144Z,97616.31
2023-04-24T07:14:09.092Z,97626.22
2023-04-24T07:16:12.946Z,97640.78
2023-04-24T07:18:15.043Z,97631.91
2023-04-24T07:20:16.844Z,97638.41
2023-04-24T07:22:18.611Z,97634.94
2023-04-24T07:24:21.751Z,97634.00
2023-04-24T07:26:24.336Z,97632.94
2023-04-24T07:28:26.390Z,97641.56
2023-04-24T07:30:29.876Z,97634.22
2023-04-24T07:32:31.577Z,97635.13
2023-04-24T07:34:33.149Z,97632.72
2023-04-24T07:36:34.650Z,97631.50
2023-04-24T07:38:36.387Z,97635.25
2023-04-24T07:40:37.901Z,97643.06
2023-04-24T07:42:39.566Z,97648.25
2023-04-24T07:44:41.014Z,97642.75
2023-04-24T07:46:42.578Z,97635.00
2023-04-24T07:48:44.254Z,97641.50
2023-04-24T07:50:46.234Z,97647.38
2023-04-24T07:52:47.819Z,97634.47
2023-04-24T07:54:50.636Z,97634.38
2023-04-24T07:56:52.177Z,97638.66
2023-04-24T07:58:53.677Z,97637.09
2023-04-24T08:00:55.301Z,97639.94
2023-04-24T08:02:56.969Z,97650.72
2023-04-24T08:05:00.404Z,97652.22
2023-04-24T08:07:02.113Z,97659.22
2023-04-24T08:09:03.876Z,97663.78
2023-04-24T08:11:05.620Z,97666.22
2023-04-24T08:13:07.168Z,97660.75
2023-04-24T08:15:09.203Z,97667.72
2023-04-24T08:17:10.708Z,97672.28
2023-04-24T08:19:12.540Z,97670.50
2023-04-24T08:21:18.051Z,97671.47
2023-04-24T08:23:19.600Z,97665.28
2023-04-24T08:25:21.229Z,97680.88
2023-04-24T08:27:22.755Z,97681.88
2023-04-24T08:29:24.455Z,97684.28
2023-04-24T08:31:27.232Z,97694.34
2023-04-24T08:33:33.810Z,97693.22
2023-04-24T08:35:35.370Z,97692.09
2023-04-24T08:37:37.465Z,97690.47
2023-04-24T08:39:39.204Z,97696.31
2023-04-24T08:41:43.955Z,97692.75
2023-04-24T08:43:47.384Z,97695.03
2023-04-24T08:45:48.917Z,97696.78
2023-04-24T08:47:51.064Z,97693.56
2023-04-24T08:49:53.690Z,97691.13
2023-04-24T08:51:55.498Z,97694.53
2023-04-24T08:53:58.694Z,97692.06
2023-04-24T08:56:02.298Z,97696.00
2023-04-24T08:58:04.585Z,97692.75
2023-04-24T09:00:11.557Z,97696.47
2023-04-24T09:02:15.175Z,97694.03
2023-04-24T09:04:19.232Z,97687.22
2023-04-24T09:06:22.892Z,97684.28
2023-04-24T09:08:26.256Z,97681.22
2023-04-24T09:10:28.460Z,97698.09
2023-04-24T09:12:30.153Z,97695.31
2023-04-24T09:14:32.959Z,97683.50
2023-04-24T09:16:36.750Z,97690.94
2023-04-24T09:18:38.526Z,97699.72
2023-04-24T09:21:04.008Z,97683.34
2023-04-24T09:23:05.638Z,97685.94
2023-04-24T09:25:09.890Z,97682.84
2023-04-24T09:27:13.558Z,97689.31
2023-04-24T09:29:18.409Z,97689.00
2023-04-24T09:31:22.968Z,97680.25
2023-04-24T09:33:24.530Z,97676.34
2023-04-24T09:35:26.385Z,97678.44
2023-04-24T09:37:30.266Z,97677.47
2023-04-24T09:39:31.726Z,97672.94
2023-04-24T09:41:34.110Z,97672.09
2023-04-24T09:43:36.404Z,97667.38
2023-04-24T09:45:40.755Z,97663.81
2023-04-24T09:47:42.968Z,97671.25
2023-04-24T09:49:45.122Z,97668.47
2023-04-24T09:51:46.955Z,97670.41
2023-04-24T09:53:48.547Z,97679.84
2023-04-24T09:56:02.656Z,97681.63
2023-04-24T09:58:06.320Z,97682.44
2023-04-24T10:00:08.797Z,97689.09
2023-04-24T10:02:23.317Z,97682.63
2023-04-24T10:04:28.006Z,97692.03
2023-04-24T10:06:34.882Z,97702.09
2023-04-24T10:08:38.386Z,97701.94
2023-04-24T10:10:45.431Z,97717.09
2023-04-24T10:12:47.957Z,97735.28
2023-04-24T10:14:50.976Z,97746.50
2023-04-24T10:16:55.605Z,97750.56
2023-04-24T10:19:00.125Z,97754.63
2023-04-24T10:21:02.286Z,97753.81
2023-04-24T10:23:05.964Z,97745.22
2023-04-24T10:25:08.409Z,97750.72
2023-04-24T10:27:10.628Z,97756.72
2023-04-24T10:29:14.088Z,97755.88
2023-04-24T10:31:16.128Z,97750.22
2023-04-24T10:33:18.618Z,97751.34
2023-04-24T10:35:23.521Z,97754.44
2023-04-24T10:37:27.322Z,97758.31
2023-04-24T10:39:29.939Z,97758.16
2023-04-24T10:41:31.762Z,97763.47
2023-04-24T10:43:34.719Z,97765.75
2023-04-24T10:45:36.723Z,97774.34
2023-04-24T10:47:42.440Z,97775.16
2023-04-24T10:49:44.197Z,97770.44
2023-04-24T10:51:53.931Z,97766.22
2023-04-24T10:53:58.443Z,97757.50
2023-04-24T10:56:10.542Z,97750.88
2023-04-24T10:58:12.842Z,97751.06
2023-04-24T11:00:16.923Z,97757.06
2023-04-24T11:02:19.691Z,97753.19
2023-04-24T11:04:32.276Z,97750.72
2023-04-24T11:06:37.019Z,97750.41
2023-04-24T11:08:46.510Z,97755.94
2023-04-24T11:10:55.113Z,97745.34
2023-04-24T11:12:56.662Z,97750.59
2023-04-24T11:14:59.186Z,97747.78
2023-04-24T11:17:02.020Z,97741.91
2023-04-24T11:19:17.274Z,97753.25
2023-04-24T11:21:19.111Z,97756.84
2023-04-24T11:23:21.548Z,97751.94
2023-04-24T11:25:26.431Z,97755.66
2023-04-24T11:27:39.448Z,97756.13
2023-04-24T11:29:58.087Z,97758.91
2023-04-24T11:32:16.064Z,97749.31
2023-04-24T11:34:18.874Z,97751.25
2023-04-24T11:36:20.737Z,97747.72
2023-04-24T11:38:24.909Z,97758.44
2023-04-24T11:40:27.031Z,97763.13
2023-04-24T11:42:29.783Z,97759.56
2023-04-24T11:44:33.142Z,97761.19
2023-04-24T11:46:34.843Z,97760.06
2023-04-24T11:48:41.078Z,97767.19
2023-04-24T11:50:47.629Z,97768.84
2023-04-24T11:52:51.213Z,97770.78
2023-04-24T11:54:52.866Z,97779.56
2023-04-24T11:56:54.569Z,97785.25
2023-04-24T11:58:56.055Z,97781.84
2023-04-24T12:00:59.186Z,97778.88
2023-04-24T12:03:10.849Z,97785.84
2023-04-24T12:05:26.046Z,97779.00
2023-04-24T12:07:27.634Z,97800.59
2023-04-24T12:09:29.601Z,97801.63
2023-04-24T12:11:31.810Z,97792.31
2023-04-24T12:13:33.961Z,97789.66
2023-04-24T12:15:35.842Z,97806.91
2023-04-24T12:17:41.790Z,97804.63
2023-04-24T12:19:49.310Z,97797.47
2023-04-24T12:22:01.708Z,97804.63
2023-04-24T12:24:07.576Z,97816.66
2023-04-24T12:26:09.206Z,97819.09
2023-04-24T12:28:13.420Z,97812.72
2023-04-24T12:30:17.761Z,97813.88
2023-04-24T12:32:19.309Z,97816.19
2023-04-24T12:34:22.624Z,97804.63
2023-04-24T12:36:24.097Z,97806.59
2023-04-24T12:38:27.716Z,97803.81
2023-04-24T12:40:31.198Z,97807.72
2023-04-24T12:42:33.258Z,97817.16
2023-04-24T12:44:35.998Z,97809.69
2023-04-24T12:46:37.555Z,97806.91
2023-04-24T12:48:39.148Z,97799.75
2023-04-24T12:50:41.463Z,97795.19
2023-04-24T12:52:44.366Z,97801.66
2023-04-24T12:54:46.264Z,97800.88
2023-04-24T12:56:47.792Z,97804.56
2023-04-24T12:58:49.270Z,97802.16
2023-04-24T13:00:50.901Z,97796.13
2023-04-24T13:02:52.612Z,97809.50
2023-04-24T13:04:54.812Z,97816.38
2023-04-24T13:06:56.353Z,97810.53
2023-04-24T13:08:58.939Z,97817.41
2023-04-24T13:11:00.647Z,97819.50
2023-04-24T13:13:02.388Z,97819.69
2023-04-24T13:15:04.561Z,97807.97
2023-04-24T13:17:06.369Z,97820.38
2023-04-24T13:19:07.903Z,97812.75
2023-04-24T13:21:12.413Z,97809.81
2023-04-24T13:23:14.417Z,97814.03
2023-04-24T13:25:18.008Z,97821.38
2023-04-24T13:27:19.749Z,97817.34
2023-04-24T13:29:21.275Z,97820.75
2023-04-24T13:31:23.025Z,97811.63
2023-04-24T13:33:24.512Z,97818.31
2023-04-24T13:35:26.018Z,97809.53
2023-04-24T13:37:27.582Z,97809.53
2023-04-24T13:39:29.045Z,97810.03
2023-04-24T13:41:30.844Z,97803.16
2023-04-24T13:43:32.370Z,97798.25
2023-04-24T13:45:33.897Z,97798.91
2023-04-24T13:47:36.422Z,97792.84
2023-04-24T13:49:37.882Z,97794.31
2023-04-24T13:51:39.895Z,97787.78
2023-04-24T13:53:41.922Z,97788.06
2023-04-24T13:55:43.566Z,97786.78
2023-04-24T13:57:45.305Z,97788.53
2023-04-24T13:59:47.006Z,97800.91
2023-04-24T14:01:49.015Z,97788.19
2023-04-24T14:03:51.859Z,97796.19
2023-04-24T14:05:53.454Z,97795.00
2023-04-24T14:07:54.958Z,97788.69
2023-04-24T14:09:56.568Z,97780.84
2023-04-24T14:11:58.348Z,97780.84
2023-04-24T14:14:00.408Z,97788.81
2023-04-24T14:16:02.036Z,97793.22
2023-04-24T14:18:05.737Z,97802.19
2023-04-24T14:20:08.323Z,97799.25
2023-04-24T14:22:11.163Z,97789.66
2023-04-24T14:24:12.683Z,97806.16
2023-04-24T14:26:14.202Z,97801.28
2023-04-24T14:28:15.894Z,97800.28
2023-04-24T14:30:17.748Z,97803.25
2023-04-24T14:32:19.355Z,97799.50
2023-04-24T14:34:21.158Z,97802.44
2023-04-24T14:36:22.611Z,97801.50
2023-04-24T14:38:24.192Z,97805.56
2023-04-24T14:42:30.034Z,97811.63
2023-04-24T14:44:31.507Z,97818.94
2023-04-24T14:46:33.014Z,97805.28
2023-04-24T14:48:34.586Z,97802.69
2023-04-24T14:50:36.948Z,97795.06
2023-04-24T14:52:38.582Z,97793.78
2023-04-24T14:54:40.114Z,97798.50
2023-04-24T14:56:42.064Z,97809.06
2023-04-24T14:58:43.673Z,97809.38
2023-04-24T15:00:45.258Z,97802.25
2023-04-24T15:02:46.973Z,97802.25
2023-04-24T15:04:48.668Z,97806.16
2023-04-24T15:06:51.100Z,97811.69
2023-04-24T15:08:52.566Z,97807.28
2023-04-24T15:10:54.497Z,97826.63
2023-04-24T15:12:56.068Z,97827.31
2023-04-24T15:14:58.956Z,97825.66
2023-04-24T15:17:00.672Z,97822.72
2023-04-24T15:19:02.576Z,97828.13
2023-04-24T15:21:04.058Z,97827.13
2023-04-24T15:23:06.756Z,97835.28
2023-04-24T15:25:08.523Z,97836.25
2023-04-24T15:27:13.336Z,97840.50
2023-04-24T15:29:14.883Z,97845.00
2023-04-24T15:31:18.932Z,97851.50
2023-04-24T15:33:20.586Z,97859.97
2023-04-24T15:35:22.520Z,97878.00
2023-04-24T15:37:24.000Z,97896.03
2023-04-24T15:39:25.653Z,97889.22
2023-04-24T15:41:27.243Z,97876.53
2023-04-24T15:43:32.010Z,97876.38
2023-04-24T15:45:33.941Z,97882.69
2023-04-24T15:47:36.191Z,97884.13
2023-04-24T15:49:37.765Z,97887.56
2023-04-24T15:51:39.228Z,97877.66
2023-04-24T15:53:42.726Z,97868.06
2023-04-24T15:55:44.248Z,97874.41
2023-04-24T15:57:45.910Z,97879.44
2023-04-24T15:59:47.648Z,97874.22
2023-04-24T16:01:49.704Z,97870.63
2023-04-24T16:03:51.532Z,97875.38
2023-04-24T16:05:53.914Z,97873.41
2023-04-24T16:07:55.400Z,97885.59
2023-04-24T16:09:56.879Z,97880.06
2023-04-24T16:11:58.503Z,97883.97
2023-04-24T16:14:00.284Z,97874.06
2023-04-24T16:16:01.855Z,97882.84
2023-04-24T16:18:03.453Z,97878.94
2023-04-24T16:20:05.465Z,97883.81
2023-04-24T16:22:06.980Z,97878.78
2023-04-24T16:24:08.731Z,97878.78
2023-04-24T16:26:10.371Z,97876.00
2023-04-24T16:28:12.195Z,97871.31
2023-04-24T16:30:14.243Z,97880.75
2023-04-24T16:32:15.785Z,97878.28
2023-04-24T16:34:17.442Z,97872.75
2023-04-24T16:36:20.668Z,97874.22
2023-04-24T16:38:22.271Z,97870.97
2023-04-24T16:40:23.819Z,97882.34
2023-04-24T16:42:25.421Z,97875.53
2023-04-24T16:44:27.060Z,97877.78
2023-04-24T16:46:28.538Z,97872.09
2023-04-24T16:48:30.269Z,97869.63
2023-04-24T16:50:31.672Z,97876.31
2023-04-24T16:52:33.093Z,97870.59
2023-04-24T16:54:37.207Z,97881.66
2023-04-24T16:56:38.796Z,97881.16
2023-04-24T16:58:40.388Z,97882.81
2023-04-24T17:00:42.161Z,97883.94
2023-04-24T17:02:48.380Z,97885.38
2023-04-24T17:04:50.103Z,97892.69
2023-04-24T17:06:51.670Z,97898.03
2023-04-24T17:08:53.261Z,97897.53
2023-04-24T17:10:54.698Z,97892.16
2023-04-24T17:12:57.258Z,97887.59
2023-04-24T17:14:58.676Z,97896.53
2023-04-24T17:17:00.622Z,97890.81
2023-04-24T17:19:02.163Z,97891.44
2023-04-24T17:21:03.846Z,97879.91
2023-04-24T17:23:05.464Z,97886.84
2023-04-24T17:25:07.274Z,97883.13
2023-04-24T17:27:15.033Z,97892.84
2023-04-24T17:29:17.130Z,97890.72
2023-04-24T17:31:18.561Z,97891.34
2023-04-24T17:33:20.009Z,97898.31
2023-04-24T17:35:22.805Z,97898.16
2023-04-24T17:37:24.665Z,97903.47
2023-04-24T17:39:26.215Z,97892.25
2023-04-24T17:41:27.673Z,97896.44
2023-04-24T17:43:29.152Z,97900.66
2023-04-24T17:45:30.699Z,97909.59
2023-04-24T17:47:32.179Z,97905.81
2023-04-24T17:49:34.093Z,97913.25
2023-04-24T17:51:35.568Z,97909.50
2023-04-24T17:53:37.479Z,97916.47
2023-04-24T17:55:39.801Z,97910.47
2023-04-24T17:57:41.358Z,97916.91
2023-04-24T17:59:42.812Z,97914.47
2023-04-24T18:01:44.416Z,97916.25
2023-04-24T18:03:46.185Z,97919.00
2023-04-24T18:05:47.868Z,97915.72
2023-04-24T18:07:49.328Z,97916.03
2023-04-24T18:09:50.999Z,97924.94
2023-04-24T18:11:52.482Z,97925.56
2023-04-24T18:13:53.989Z,97931.19
2023-04-24T18:15:55.491Z,97932.13
2023-04-24T18:17:57.064Z,97931.13
2023-04-24T18:19:58.538Z,97931.75
2023-04-24T18:22:00.176Z,97935.75
2023-04-24T18:24:02.056Z,97938.59
2023-04-24T18:26:03.825Z,97938.72
2023-04-24T18:28:05.317Z,97947.91
2023-04-24T18:30:08.863Z,97948.03
2023-04-24T18:32:10.429Z,97945.38
2023-04-24T18:34:11.956Z,97949.88
2023-04-24T18:36:13.458Z,97951.13
2023-04-24T18:38:15.198Z,97959.19
2023-04-24T18:40:17.014Z,97944.09
2023-04-24T18:42:18.610Z,97946.31
2023-04-24T18:44:20.307Z,97949.41
2023-04-24T18:46:21.799Z,97950.00
2023-04-24T18:48:23.325Z,97953.91
2023-04-24T18:50:27.311Z,97958.59
2023-04-24T18:52:29.961Z,97959.41
2023-04-24T18:54:32.207Z,97962.16
2023-04-24T18:56:33.652Z,97963.28
2023-04-24T18:58:35.094Z,97964.94
2023-04-24T19:00:37.981Z,97973.19
2023-04-24T19:02:39.597Z,97966.03
2023-04-24T19:04:41.307Z,97977.88
2023-04-24T19:06:42.768Z,97977.88
2023-04-24T19:08:44.871Z,97986.13
2023-04-24T19:10:46.455Z,97994.69
2023-04-24T19:12:49.562Z,97992.25
2023-04-24T19:14:51.821Z,97998.56
2023-04-24T19:16:53.558Z,97999.50
2023-04-24T19:18:55.088Z,98001.44
2023-04-24T19:20:56.861Z,98004.47
2023-04-24T19:22:58.342Z,98016.31
2023-04-24T19:24:59.779Z,98002.88
2023-04-24T19:27:01.744Z,98015.81
2023-04-24T19:29:03.505Z,98013.06
2023-04-24T19:31:04.952Z,98008.38
2023-04-24T19:33:06.743Z,98020.22
2023-04-24T19:35:08.614Z,98026.22
2023-04-24T19:37:10.432Z,98028.16
2023-04-24T19:39:12.172Z,98026.72
2023-04-24T19:41:13.827Z,98029.16
2023-04-24T19:43:15.443Z,98031.63
2023-04-24T19:45:17.019Z,98022.22
2023-04-24T19:47:18.457Z,98024.97
2023-04-24T19:49:20.028Z,98025.50
2023-04-24T19:51:21.516Z,98017.25
2023-04-24T19:53:23.045Z,98020.00
2023-04-24T19:55:24.841Z,98019.38
2023-04-24T19:57:26.381Z,98024.59
2023-04-24T19:59:27.811Z,98019.91
2023-04-24T20:01:29.330Z,98032.84
2023-04-24T20:03:34.073Z,98025.41
2023-04-24T20:05:36.169Z,98023.44
2023-04-24T20:07:37.615Z,98022.66
2023-04-24T20:09:39.155Z,98024.88
2023-04-24T20:11:40.627Z,98028.78
2023-04-24T20:13:42.128Z,98024.38
2023-04-24T20:15:43.612Z,98017.25
2023-04-24T20:17:45.117Z,98009.59
2023-04-24T20:19:46.625Z,98021.44
2023-04-24T20:21:48.624Z,98009.28
2023-04-24T20:23:52.238Z,98012.84
2023-04-24T20:25:59.506Z,98008.97
2023-04-24T20:28:00.988Z,98007.34
2023-04-24T20:30:03.461Z,98007.34
2023-04-24T20:32:04.940Z,98003.47
2023-04-24T20:34:06.659Z,98007.03
2023-04-24T20:36:09.541Z,98005.91
2023-04-24T20:38:11.026Z,98003.97
2023-04-24T20:40:14.113Z,98005.59
2023-04-24T20:42:16.579Z,98000.63
2023-04-24T20:44:18.462Z,98007.75
2023-04-24T20:46:19.909Z,98002.22
2023-04-24T20:48:21.451Z,97999.97
2023-04-24T20:50:23.026Z,97992.84
2023-04-24T20:52:24.606Z,97996.44
2023-04-24T20:54:26.079Z,98001.13
2023-04-24T20:56:27.531Z,97999.47
2023-04-24T20:58:29.163Z,98005.81
2023-04-24T21:00:31.170Z,97997.88
2023-04-24T21:02:32.806Z,98000.09
2023-04-24T21:04:37.556Z,98003.38
2023-04-24T21:06:39.032Z,97994.56
2023-04-24T21:08:40.733Z,97994.91
2023-04-24T21:10:42.222Z,97987.75
2023-04-24T21:12:44.000Z,97989.72
2023-04-24T21:14:45.519Z,97987.75
2023-04-24T21:16:47.001Z,97991.31
2023-04-24T21:18:48.613Z,97994.06
2023-04-24T21:20:51.700Z,97991.81
2023-04-24T21:22:53.180Z,97983.28
2023-04-24T21:24:54.813Z,97979.69
2023-04-24T21:26:56.251Z,97986.03
2023-04-24T21:28:57.747Z,97982.94
2023-04-24T21:30:59.251Z,97986.53
2023-04-24T21:33:00.835Z,97979.09
2023-04-24T21:35:02.403Z,97971.31
2023-04-24T21:37:03.866Z,97976.50
2023-04-24T21:39:05.636Z,97968.25
2023-04-24T21:41:07.116Z,97971.81
2023-04-24T21:43:09.750Z,97963.56
2023-04-24T21:45:11.701Z,97971.00
2023-04-24T21:47:13.156Z,97971.00
2023-04-24T21:49:14.625Z,97971.00
2023-04-24T21:51:16.676Z,97965.81
2023-04-24T21:53:18.208Z,97967.47
2023-04-24T21:55:21.239Z,97969.06
2023-04-24T21:57:22.738Z,97958.88
2023-04-24T21:59:24.352Z,97968.47
2023-04-24T22:01:26.009Z,97960.53
2023-04-24T22:03:27.641Z,97964.06
2023-04-24T22:05:30.746Z,97955.31
2023-04-24T22:07:35.095Z,97957.56
2023-04-24T22:09:36.568Z,97957.56
2023-04-24T22:11:38.543Z,97959.00
2023-04-24T22:13:40.032Z,97952.16
2023-04-24T22:15:42.541Z,97954.41
2023-04-24T22:17:44.304Z,97957.16
2023-04-24T22:19:45.848Z,97953.91
2023-04-24T22:21:47.426Z,97960.53
2023-04-24T22:23:49.164Z,97949.50
2023-04-24T22:25:51.279Z,97947.88
2023-04-24T22:27:52.727Z,97945.13
2023-04-24T22:29:54.193Z,97951.44
2023-04-24T22:31:56.753Z,97944.31
2023-04-24T22:33:58.492Z,97949.00
2023-04-24T22:35:59.999Z,97946.25
2023-04-24T22:38:01.493Z,97945.75
2023-04-24T22:40:03.536Z,97953.19
2023-04-24T22:42:05.381Z,97945.22
2023-04-24T22:44:07.283Z,97946.66
2023-04-24T22:46:08.992Z,97941.78
2023-04-24T22:48:10.483Z,97942.41
2023-04-24T22:50:11.973Z,97943.22
2023-04-24T22:52:14.888Z,97935.75
2023-04-24T22:54:16.316Z,97937.72
2023-04-24T22:56:17.947Z,97942.06
2023-04-24T22:58:19.377Z,97939.63
2023-04-24T23:00:20.891Z,97934.13
2023-04-24T23:02:23.437Z,97938.81
2023-04-24T23:04:26.341Z,97933.00
2023-04-24T23:06:28.072Z,97930.25
2023-04-24T23:08:30.662Z,97934.97
2023-04-24T23:10:32.298Z,97926.38
2023-04-24T23:12:33.813Z,97927.47
2023-04-24T23:14:35.293Z,97927.19
2023-04-24T23:16:41.003Z,97925.25
2023-04-24T23:18:42.535Z,97916.69
2023-04-24T23:20:44.215Z,97918.31
2023-04-24T23:22:46.029Z,97919.94
2023-04-24T23:24:47.642Z,97919.66
2023-04-24T23:26:49.077Z,97915.47
2023-04-24T23:28:50.816Z,97913.22
2023-04-24T23:30:52.723Z,97907.38
2023-04-24T23:32:54.282Z,97911.78
2023-04-24T23:34:56.401Z,97909.03
2023-04-24T23:36:57.889Z,97904.34
2023-04-24T23:38:59.432Z,97895.75
2023-04-24T23:41:01.304Z,97898.19
2023-04-24T23:43:07.513Z,97888.81
2023-04-24T23:45:11.079Z,97887.16
2023-04-24T23:47:12.664Z,97887.16
2023-04-24T23:49:14.726Z,97885.56
2023-04-24T23:51:16.226Z,97888.00
2023-04-24T23:53:17.771Z,97883.09
2023-04-24T23:55:19.296Z,97883.41
2023-04-24T23:57:21.569Z,97884.25
2023-04-24T23:59:23.051Z,97888.94
